Mercur 210 — YP3257 — position and weather

sailwx.info

Track history (hours):
 
Tides and Currents Weather Stations Pressure Air Temp Water Temp Dewpoint Dewpoint Depression Visibility Wind Speed Wind Dir Waves Ship Positions

Mercur 210

Last reported at 2018-Feb-20 19:01 UTC. Time now 2018-Feb-20 19:23 UTC.
Position N 44°08' E 028°39'.

Length 167 m; draft 2.6 m.

Type: Ship. MMSI: 264163257.

Date/timePositionNaut miles runAvg speedWind from/ knotsBaromVisibWave heightAir tempDewpointWater temp
2018-Feb-20 19:01N 44°08' E 028°39'0 0.0
2018-Feb-20 18:31N 44°08' E 028°39'0 0.0
2018-Feb-20 18:01N 44°08' E 028°39'0 0.0
2018-Feb-20 17:31N 44°08' E 028°39'0 0.0
2018-Feb-20 17:01N 44°08' E 028°39'0 0.0
2018-Feb-20 16:30N 44°08' E 028°39'0 0.0
2018-Feb-20 16:01N 44°08' E 028°39'0 0.0
2018-Feb-20 15:31N 44°08' E 028°39'0 0.0
2018-Feb-20 15:00N 44°08' E 028°39'0 0.0
2018-Feb-20 14:31N 44°08' E 028°39'0 0.0
2018-Feb-20 14:00N 44°08' E 028°39'0 0.0
2018-Feb-20 13:31N 44°08' E 028°39'0 0.6
2018-Feb-20 13:01N 44°08' E 028°39'0 0.1
2018-Feb-20 12:31N 44°07' E 028°39'1 2.9
2018-Feb-20 12:00N 44°06' E 028°39'1 2.1
2018-Feb-20 11:30N 44°06' E 028°37'0 0.4
2018-Feb-20 11:00N 44°06' E 028°37'0 0.7
2018-Feb-20 10:31N 44°06' E 028°36'0 0.0
2018-Feb-20 10:00N 44°06' E 028°36'1 1.6
2018-Feb-20 09:31N 44°06' E 028°35'9 4.2
2018-Feb-20 07:25N 44°10' E 028°24'3 4.8
2018-Feb-20 06:54N 44°13' E 028°23'4 4.7
2018-Feb-20 06:07N 44°15' E 028°19'1 4.9
2018-Feb-20 06:00N 44°15' E 028°19'  
Track history (hours):
 
Tides and Currents Weather Stations Pressure Air Temp Water Temp Dewpoint Dewpoint Depression Visibility Wind Speed Wind Dir Waves Ship Positions

Mercur 210

Last reported at 2018-Feb-20 19:01 UTC. Time now 2018-Feb-20 19:23 UTC.
Position N 44°08' E 028°39'.

Length 167 m; draft 2.6 m.

Type: Ship. MMSI: 264163257.

Date/timePositionNaut miles runAvg speedWind from/ knotsBaromVisibWave heightAir tempDewpointWater temp
2018-Feb-20 19:01N 44°08' E 028°39'0 0.0
2018-Feb-20 18:31N 44°08' E 028°39'0 0.0
2018-Feb-20 18:01N 44°08' E 028°39'0 0.0
2018-Feb-20 17:31N 44°08' E 028°39'0 0.0
2018-Feb-20 17:01N 44°08' E 028°39'0 0.0
2018-Feb-20 16:30N 44°08' E 028°39'0 0.0
2018-Feb-20 16:01N 44°08' E 028°39'0 0.0
2018-Feb-20 15:31N 44°08' E 028°39'0 0.0
2018-Feb-20 15:00N 44°08' E 028°39'0 0.0
2018-Feb-20 14:31N 44°08' E 028°39'0 0.0
2018-Feb-20 14:00N 44°08' E 028°39'0 0.0
2018-Feb-20 13:31N 44°08' E 028°39'0 0.6
2018-Feb-20 13:01N 44°08' E 028°39'0 0.1
2018-Feb-20 12:31N 44°07' E 028°39'1 2.9
2018-Feb-20 12:00N 44°06' E 028°39'1 2.1
2018-Feb-20 11:30N 44°06' E 028°37'0 0.4
2018-Feb-20 11:00N 44°06' E 028°37'0 0.7
2018-Feb-20 10:31N 44°06' E 028°36'0 0.0
2018-Feb-20 10:00N 44°06' E 028°36'1 1.6
2018-Feb-20 09:31N 44°06' E 028°35'9 4.2
2018-Feb-20 07:25N 44°10' E 028°24'3 4.8
2018-Feb-20 06:54N 44°13' E 028°23'4 4.7
2018-Feb-20 06:07N 44°15' E 028°19'1 4.9
2018-Feb-20 06:00N 44°15' E 028°19'  

Dump ship's entire track history